Time;durP1;ratioP1;P1;durP2;ratioP2;P2;SDS_P1;SDS_P2;PMS_P1;PMS_P2;Temp;Humidity;BMP_temperature;BMP_pressure;BME280_temperature;BME280_humidity;BME280_pressure;Samples;Min_cycle;Max_cycle;Signal;HPM_P1;HPM_P2
2022/03/15 00:00:42;;;;;;;26.60;15.70;;;6.40;99.90;;;;;;5027398;28;20060;-48
2022/03/15 00:03:08;;;;;;;26.27;15.30;;;6.40;99.90;;;;;;5027456;28;20036;-47
2022/03/15 00:05:34;;;;;;;25.67;14.82;;;6.40;99.90;;;;;;5028725;28;20569;-47
2022/03/15 00:08:00;;;;;;;23.85;15.05;;;6.30;99.90;;;;;;5029417;28;20037;-49
2022/03/15 00:10:26;;;;;;;25.55;14.88;;;6.30;99.90;;;;;;5028966;28;20048;-50
2022/03/15 00:12:54;;;;;;;23.17;13.77;;;6.20;99.90;;;;;;5028939;28;20037;-49
2022/03/15 00:15:20;;;;;;;26.65;15.10;;;6.20;99.90;;;;;;5028642;28;20059;-47
2022/03/15 00:17:45;;;;;;;24.23;14.63;;;6.20;99.90;;;;;;5029536;28;20029;-48
2022/03/15 00:20:18;;;;;;;23.67;14.02;;;6.20;99.90;;;;;;5027587;28;20033;-47
2022/03/15 00:22:44;;;;;;;32.72;14.73;;;6.20;99.90;;;;;;5027675;28;20116;-48
2022/03/15 00:25:11;;;;;;;21.92;13.43;;;6.20;99.90;;;;;;5027545;28;20029;-47
2022/03/15 00:27:38;;;;;;;22.17;12.07;;;6.20;99.90;;;;;;5028828;28;20560;-47
2022/03/15 00:30:06;;;;;;;23.45;13.52;;;6.20;99.90;;;;;;5029114;28;20497;-47
2022/03/15 00:32:32;;;;;;;26.13;13.85;;;6.20;99.90;;;;;;5027766;28;20037;-48
2022/03/15 00:34:58;;;;;;;29.10;14.60;;;6.20;99.90;;;;;;5028399;28;20072;-48
2022/03/15 00:37:24;;;;;;;25.63;14.80;;;6.10;99.90;;;;;;5029254;28;20421;-50
2022/03/15 00:39:50;;;;;;;23.45;13.95;;;6.10;99.90;;;;;;5027644;28;20034;-49
2022/03/15 00:42:16;;;;;;;24.88;14.80;;;6.10;99.90;;;;;;5028460;28;20090;-50
2022/03/15 00:44:42;;;;;;;26.23;14.30;;;6.10;99.90;;;;;;5027436;28;20072;-49
2022/03/15 00:47:08;;;;;;;25.05;12.70;;;6.10;99.90;;;;;;5029075;28;20053;-46
2022/03/15 00:49:34;;;;;;;26.20;13.63;;;6.10;99.90;;;;;;5029221;28;20167;-48
2022/03/15 00:52:00;;;;;;;26.30;13.40;;;6.00;99.90;;;;;;5031181;28;20116;-48
2022/03/15 00:54:26;;;;;;;22.65;13.68;;;6.00;99.90;;;;;;5032373;28;20037;-46
2022/03/15 00:56:52;;;;;;;24.42;13.10;;;6.00;99.90;;;;;;5032589;28;20026;-49
2022/03/15 00:59:19;;;;;;;27.23;14.10;;;6.00;99.90;;;;;;5032189;28;20037;-45
2022/03/15 01:01:45;;;;;;;25.63;13.93;;;6.00;99.90;;;;;;5032167;28;20476;-49
2022/03/15 01:04:12;;;;;;;19.98;12.80;;;6.00;99.90;;;;;;5030252;28;20189;-48
2022/03/15 01:06:38;;;;;;;21.33;13.93;;;6.00;99.90;;;;;;5032522;28;20078;-46
2022/03/15 01:09:04;;;;;;;22.13;13.10;;;6.00;99.90;;;;;;5032280;28;20056;-46
2022/03/15 01:11:30;;;;;;;23.90;12.20;;;5.90;99.90;;;;;;5032597;28;20052;-46
2022/03/15 01:13:56;;;;;;;22.27;12.25;;;6.00;99.90;;;;;;5030197;28;20029;-46
2022/03/15 01:16:22;;;;;;;20.85;12.40;;;5.90;99.90;;;;;;5029656;28;20467;-47
2022/03/15 01:18:47;;;;;;;24.60;13.35;;;5.90;99.90;;;;;;5032343;28;20113;-48
2022/03/15 01:21:14;;;;;;;23.77;12.65;;;5.90;99.90;;;;;;5031940;28;20083;-48
2022/03/15 01:23:40;;;;;;;29.63;14.85;;;5.90;99.90;;;;;;5031553;28;20397;-47
2022/03/15 01:26:06;;;;;;;28.52;13.02;;;5.90;99.90;;;;;;5030320;28;20029;-48
2022/03/15 01:28:31;;;;;;;23.17;13.57;;;5.90;99.90;;;;;;5031949;28;20571;-46
2022/03/15 01:30:57;;;;;;;24.75;13.77;;;5.90;99.90;;;;;;5030633;28;20375;-47
2022/03/15 01:33:23;;;;;;;27.40;15.38;;;5.90;99.90;;;;;;5031316;28;20108;-49
2022/03/15 01:35:48;;;;;;;26.00;14.73;;;5.90;99.90;;;;;;5031550;28;20064;-49
2022/03/15 01:38:14;;;;;;;19.88;13.98;;;5.80;99.90;;;;;;5031398;28;20026;-52
2022/03/15 01:40:40;;;;;;;23.45;14.75;;;5.80;99.90;;;;;;5031863;28;20218;-52
2022/03/15 01:43:05;;;;;;;21.23;13.25;;;5.80;99.90;;;;;;5028900;28;20026;-46
2022/03/15 01:45:36;;;;;;;21.35;14.30;;;5.80;99.90;;;;;;5028001;28;20409;-46
2022/03/15 01:48:03;;;;;;;21.45;13.85;;;5.80;99.90;;;;;;5031785;28;20110;-48
2022/03/15 01:50:29;;;;;;;23.77;14.40;;;5.70;99.90;;;;;;5030194;28;20372;-48
2022/03/15 01:52:55;;;;;;;23.13;14.00;;;5.70;99.90;;;;;;5030648;28;20410;-47
2022/03/15 01:55:21;;;;;;;25.05;14.15;;;5.70;99.90;;;;;;5031224;28;20033;-48
2022/03/15 01:57:47;;;;;;;25.90;16.55;;;5.70;99.90;;;;;;5025094;28;20048;-48
2022/03/15 02:00:14;;;;;;;24.15;15.35;;;5.70;99.90;;;;;;5021822;28;20539;-48
2022/03/15 02:02:39;;;;;;;26.63;15.55;;;5.70;99.90;;;;;;5027920;28;20029;-48
2022/03/15 02:05:06;;;;;;;24.60;14.60;;;5.70;99.90;;;;;;5029800;28;20048;-49
2022/03/15 02:07:31;;;;;;;21.17;14.73;;;5.70;99.90;;;;;;5031007;28;20048;-48
2022/03/15 02:09:57;;;;;;;19.75;14.18;;;5.70;99.90;;;;;;5030871;28;20041;-49
2022/03/15 02:12:22;;;;;;;21.17;13.57;;;5.70;99.90;;;;;;5030725;28;20563;-47
2022/03/15 02:14:48;;;;;;;22.63;14.52;;;5.70;99.90;;;;;;5030504;28;20442;-47
2022/03/15 02:17:14;;;;;;;20.05;13.68;;;5.60;99.90;;;;;;5029390;28;20030;-49
2022/03/15 02:19:39;;;;;;;21.10;14.45;;;5.60;99.90;;;;;;5031048;28;20678;-50
2022/03/15 02:22:05;;;;;;;20.60;13.18;;;5.60;99.90;;;;;;5030633;28;20040;-51
2022/03/15 02:24:31;;;;;;;19.85;12.55;;;5.60;99.90;;;;;;5030741;28;20152;-51
2022/03/15 02:26:57;;;;;;;29.73;13.55;;;5.60;99.90;;;;;;5029551;28;20056;-48
2022/03/15 02:29:22;;;;;;;20.38;12.00;;;5.60;99.90;;;;;;5029694;28;20029;-47
2022/03/15 02:31:49;;;;;;;17.73;12.40;;;5.50;99.90;;;;;;5030893;28;20026;-49
2022/03/15 02:34:16;;;;;;;18.92;11.75;;;5.50;99.90;;;;;;5030349;28;20030;-48
2022/03/15 02:36:44;;;;;;;19.83;12.50;;;5.50;99.90;;;;;;5029437;28;20489;-49
2022/03/15 02:39:09;;;;;;;20.67;11.88;;;5.50;99.90;;;;;;5029421;28;20038;-47
2022/03/15 02:41:35;;;;;;;20.35;12.75;;;5.50;99.90;;;;;;5029336;28;20083;-51
2022/03/15 02:44:01;;;;;;;16.80;11.75;;;5.40;99.90;;;;;;5028739;28;20037;-47
2022/03/15 02:46:30;;;;;;;16.20;11.98;;;5.40;99.90;;;;;;5030733;28;20033;-49
2022/03/15 02:48:57;;;;;;;23.02;14.48;;;5.40;99.90;;;;;;5029128;28;20313;-48
2022/03/15 02:51:22;;;;;;;16.77;12.48;;;5.40;99.90;;;;;;5029928;28;20285;-48
2022/03/15 02:53:51;;;;;;;21.15;12.65;;;5.30;99.90;;;;;;5029795;28;20741;-50
2022/03/15 02:56:16;;;;;;;17.42;12.10;;;5.30;99.90;;;;;;5030442;28;20452;-51
2022/03/15 02:58:42;;;;;;;16.50;12.02;;;5.30;99.90;;;;;;5028482;28;20043;-53
2022/03/15 03:01:09;;;;;;;16.65;11.45;;;5.30;99.90;;;;;;5029963;28;20053;-51
2022/03/15 03:03:34;;;;;;;21.30;14.63;;;5.30;99.90;;;;;;5029610;28;20121;-47
2022/03/15 03:06:00;;;;;;;23.08;13.63;;;5.30;99.90;;;;;;5030689;28;20109;-48
2022/03/15 03:08:27;;;;;;;20.77;14.38;;;5.30;99.90;;;;;;5030574;28;20033;-48
2022/03/15 03:10:54;;;;;;;22.05;13.90;;;5.30;99.90;;;;;;5030559;28;20079;-49
2022/03/15 03:13:25;;;;;;;21.05;14.52;;;5.40;99.90;;;;;;5028294;28;20038;-47
2022/03/15 03:15:52;;;;;;;22.90;14.98;;;5.30;99.90;;;;;;5029841;28;20405;-48
2022/03/15 03:18:18;;;;;;;24.15;15.20;;;5.30;99.90;;;;;;5029533;28;20550;-47
2022/03/15 03:20:44;;;;;;;25.45;15.27;;;5.30;99.90;;;;;;5029834;28;20108;-46
2022/03/15 03:23:09;;;;;;;25.27;15.18;;;5.40;99.90;;;;;;5028090;28;20513;-48
2022/03/15 03:25:36;;;;;;;26.05;15.75;;;5.30;99.90;;;;;;5030159;28;20076;-48
2022/03/15 03:28:05;;;;;;;22.85;14.82;;;5.30;99.90;;;;;;5029861;28;20055;-47
2022/03/15 03:30:32;;;;;;;19.83;14.82;;;5.30;99.90;;;;;;5029587;28;20604;-47
2022/03/15 03:32:57;;;;;;;21.88;14.07;;;5.30;99.90;;;;;;5029199;28;20028;-47
2022/03/15 03:35:24;;;;;;;24.85;15.20;;;5.30;99.90;;;;;;5029786;28;20037;-47
2022/03/15 03:37:49;;;;;;;25.35;15.73;;;5.30;99.90;;;;;;5028049;28;20424;-47
2022/03/15 03:40:15;;;;;;;25.40;15.13;;;5.30;99.90;;;;;;5028325;28;20125;-45
2022/03/15 03:42:40;;;;;;;22.98;14.07;;;5.30;99.90;;;;;;5030117;28;20099;-52
2022/03/15 03:45:07;;;;;;;21.60;13.43;;;5.30;99.90;;;;;;5029479;28;20120;-49
2022/03/15 03:47:33;;;;;;;23.00;13.60;;;5.30;99.90;;;;;;5029773;28;20029;-50
2022/03/15 03:49:58;;;;;;;23.88;14.63;;;5.20;99.90;;;;;;5029451;28;20040;-48
2022/03/15 03:52:24;;;;;;;20.25;12.95;;;5.20;99.90;;;;;;5029255;28;20065;-51
2022/03/15 03:54:50;;;;;;;19.90;14.63;;;5.20;99.90;;;;;;5029200;28;20049;-51
2022/03/15 03:57:16;;;;;;;22.52;14.70;;;5.20;99.90;;;;;;5062013;23;20071;-77
2022/03/15 03:59:41;;;;;;;25.73;15.25;;;5.20;99.90;;;;;;5071508;28;20058;-77
2022/03/15 04:02:07;;;;;;;24.33;15.63;;;5.20;99.90;;;;;;5060182;28;20017;-78
2022/03/15 04:04:32;;;;;;;22.27;13.57;;;5.20;99.90;;;;;;5074039;28;20028;-77
2022/03/15 04:07:05;;;;;;;27.65;14.40;;;5.20;99.90;;;;;;5056600;28;20021;-78
2022/03/15 04:09:30;;;;;;;24.42;14.80;;;5.20;99.90;;;;;;5058359;28;20031;-77
2022/03/15 04:11:56;;;;;;;32.10;15.65;;;5.20;99.90;;;;;;5054441;28;20432;-77
2022/03/15 04:14:22;;;;;;;25.13;14.73;;;5.20;99.90;;;;;;5071338;28;20450;-76
2022/03/15 04:16:48;;;;;;;28.88;14.35;;;5.20;99.90;;;;;;5053663;28;20507;-77
2022/03/15 04:19:13;;;;;;;27.23;15.43;;;5.10;99.90;;;;;;5054376;28;20016;-77
2022/03/15 04:21:39;;;;;;;25.35;15.55;;;5.10;99.90;;;;;;5054355;28;20025;-78
2022/03/15 04:24:05;;;;;;;25.52;15.85;;;5.00;99.90;;;;;;5053884;28;20025;-78
2022/03/15 04:26:30;;;;;;;35.78;17.13;;;5.10;99.90;;;;;;5076375;28;20028;-77
2022/03/15 04:28:56;;;;;;;29.42;17.30;;;5.10;99.90;;;;;;5075276;28;20093;-76
2022/03/15 04:31:22;;;;;;;32.95;17.38;;;5.10;99.90;;;;;;5074313;28;20020;-77
2022/03/15 04:33:48;;;;;;;29.35;16.55;;;5.10;99.90;;;;;;5056009;28;20029;-77
2022/03/15 04:36:14;;;;;;;31.00;16.15;;;5.10;99.90;;;;;;5073079;28;20032;-78
2022/03/15 04:38:40;;;;;;;26.02;16.52;;;5.00;99.90;;;;;;5075457;28;20028;-77
2022/03/15 04:41:06;;;;;;;31.25;16.75;;;5.10;99.90;;;;;;5076126;28;20021;-77
2022/03/15 04:43:32;;;;;;;24.17;16.00;;;5.00;99.90;;;;;;5057767;28;20094;-77
2022/03/15 04:45:58;;;;;;;32.88;18.42;;;5.00;99.90;;;;;;5057949;28;20462;-78
2022/03/15 04:48:24;;;;;;;33.55;16.40;;;5.00;99.90;;;;;;5057753;28;20711;-77
2022/03/15 04:50:50;;;;;;;31.55;17.35;;;5.00;99.90;;;;;;5074351;28;20028;-77
2022/03/15 04:53:16;;;;;;;27.90;16.52;;;4.90;99.90;;;;;;5073184;28;20081;-77
2022/03/15 04:55:42;;;;;;;32.13;18.58;;;4.90;99.90;;;;;;5057919;28;20115;-78
2022/03/15 04:58:08;;;;;;;33.00;20.33;;;4.80;99.90;;;;;;5058421;28;20036;-78
2022/03/15 05:00:34;;;;;;;33.25;18.35;;;4.80;99.90;;;;;;5058025;28;20039;-78
2022/03/15 05:02:59;;;;;;;38.17;18.98;;;4.80;99.90;;;;;;5057816;28;20112;-78
2022/03/15 05:05:25;;;;;;;32.25;18.83;;;4.80;99.90;;;;;;5074689;28;20024;-77
2022/03/15 05:07:51;;;;;;;33.40;19.15;;;4.80;99.90;;;;;;5055276;28;20032;-77
2022/03/15 05:13:01;;;;;;;38.33;19.17;;;4.80;99.90;;;;;;5074266;28;20468;-77
2022/03/15 05:15:27;;;;;;;32.30;19.00;;;4.80;99.90;;;;;;5073162;28;20025;-77
2022/03/15 05:17:52;;;;;;;37.20;20.25;;;4.80;99.90;;;;;;5056261;28;20075;-77
2022/03/15 05:20:18;;;;;;;39.05;20.08;;;4.80;99.90;;;;;;5073792;28;20453;-77
2022/03/15 05:22:44;;;;;;;30.05;18.67;;;4.80;99.90;;;;;;5056351;28;20051;-77
2022/03/15 05:25:11;;;;;;;37.08;20.25;;;4.80;99.90;;;;;;5073993;28;20411;-77
2022/03/15 05:27:37;;;;;;;36.92;21.00;;;4.80;99.90;;;;;;5074671;28;20070;-77
2022/03/15 05:30:04;;;;;;;47.53;21.20;;;4.80;99.90;;;;;;5056352;28;20428;-77
2022/03/15 05:32:30;;;;;;;33.55;19.83;;;4.80;99.90;;;;;;5074032;28;20032;-77
2022/03/15 05:34:56;;;;;;;41.13;18.55;;;4.80;99.90;;;;;;5055966;28;20032;-77
2022/03/15 05:37:22;;;;;;;28.33;18.25;;;4.70;99.90;;;;;;5055175;28;20055;-78
2022/03/15 05:39:47;;;;;;;36.00;19.50;;;4.70;99.90;;;;;;5075096;28;20029;-77
2022/03/15 05:42:13;;;;;;;33.97;18.45;;;4.70;99.90;;;;;;5073631;28;20012;-77
2022/03/15 05:44:40;;;;;;;32.53;19.30;;;4.70;99.90;;;;;;5074636;28;20021;-78
2022/03/15 05:47:06;;;;;;;41.63;17.20;;;4.70;99.90;;;;;;5056120;28;20021;-77
2022/03/15 05:49:32;;;;;;;26.92;16.88;;;4.70;99.90;;;;;;5074303;28;20093;-77
2022/03/15 05:51:57;;;;;;;28.67;16.58;;;4.70;99.90;;;;;;5074161;28;20037;-77
2022/03/15 05:54:23;;;;;;;27.75;16.88;;;4.60;99.90;;;;;;5056279;28;20056;-77
2022/03/15 05:56:49;;;;;;;28.60;16.63;;;4.60;99.90;;;;;;5052197;28;20036;-76
2022/03/15 05:59:14;;;;;;;40.75;17.98;;;4.60;99.90;;;;;;5053249;28;20033;-77
2022/03/15 06:01:40;;;;;;;31.05;19.13;;;4.60;99.90;;;;;;5053376;28;20104;-77
2022/03/15 06:04:07;;;;;;;30.42;18.58;;;4.60;99.90;;;;;;5051681;28;20112;-77
2022/03/15 06:06:33;;;;;;;28.55;17.25;;;4.60;99.90;;;;;;5051326;28;20474;-77
2022/03/15 06:08:59;;;;;;;29.75;17.02;;;4.60;99.90;;;;;;5054131;28;20025;-78
2022/03/15 06:11:25;;;;;;;31.05;16.80;;;4.70;99.90;;;;;;5054063;28;20470;-77
2022/03/15 06:13:51;;;;;;;33.47;18.17;;;4.70;99.90;;;;;;5051762;28;20029;-76
2022/03/15 06:16:17;;;;;;;36.90;17.50;;;4.70;99.90;;;;;;5054631;28;20082;-76
2022/03/15 06:18:42;;;;;;;27.20;17.95;;;4.70;99.90;;;;;;5053077;28;20029;-78
2022/03/15 06:21:08;;;;;;;30.70;18.35;;;4.70;99.90;;;;;;5053312;28;20036;-77
2022/03/15 06:23:34;;;;;;;27.00;17.83;;;4.70;99.90;;;;;;5052685;28;20384;-77
2022/03/15 06:26:00;;;;;;;29.52;18.15;;;4.80;99.90;;;;;;5052101;28;20059;-76
2022/03/15 06:28:25;;;;;;;25.98;16.67;;;4.80;99.90;;;;;;5052276;28;20037;-78
2022/03/15 06:30:51;;;;;;;27.00;16.45;;;4.80;99.90;;;;;;5052867;28;20120;-77
2022/03/15 06:33:17;;;;;;;21.58;15.43;;;4.80;99.90;;;;;;5052148;28;20029;-77
2022/03/15 06:35:42;;;;;;;27.00;14.40;;;4.90;99.90;;;;;;5052894;28;20163;-77
2022/03/15 06:38:09;;;;;;;24.52;15.70;;;4.80;99.90;;;;;;5052129;28;20025;-77
2022/03/15 06:40:36;;;;;;;21.83;15.43;;;4.90;99.90;;;;;;5047980;28;20028;-78
2022/03/15 06:43:02;;;;;;;25.73;16.48;;;4.80;99.90;;;;;;5054654;28;20512;-77
2022/03/15 06:45:28;;;;;;;25.35;15.27;;;4.80;99.90;;;;;;5054355;28;20025;-78
2022/03/15 06:47:54;;;;;;;31.40;15.48;;;4.90;99.90;;;;;;5053626;28;20040;-77
2022/03/15 06:50:20;;;;;;;39.92;15.82;;;4.90;99.90;;;;;;5053016;28;20025;-77
2022/03/15 06:52:47;;;;;;;21.15;14.85;;;4.90;99.90;;;;;;5053407;28;20021;-77
2022/03/15 06:55:13;;;;;;;30.73;16.10;;;4.80;99.90;;;;;;5053120;28;20410;-76
2022/03/15 06:57:39;;;;;;;26.80;16.42;;;4.90;99.90;;;;;;5053914;28;20025;-78
2022/03/15 07:00:11;;;;;;;23.95;17.25;;;4.90;99.90;;;;;;5052811;28;20415;-78
2022/03/15 07:02:37;;;;;;;28.90;16.95;;;4.90;99.90;;;;;;5051607;28;20044;-77
2022/03/15 07:05:03;;;;;;;25.98;17.80;;;4.90;99.90;;;;;;5055912;28;20021;-76
2022/03/15 07:07:29;;;;;;;30.58;18.33;;;4.90;99.90;;;;;;5051008;28;20021;-76
2022/03/15 07:09:54;;;;;;;32.30;19.08;;;5.00;99.90;;;;;;5051145;28;20025;-77
2022/03/15 07:12:20;;;;;;;27.30;18.75;;;5.00;99.90;;;;;;5050491;28;20112;-77
2022/03/15 07:14:47;;;;;;;31.88;17.92;;;5.00;99.90;;;;;;5051529;28;20025;-76
2022/03/15 07:17:12;;;;;;;34.53;19.00;;;5.10;99.90;;;;;;5050628;28;20029;-77
2022/03/15 07:19:38;;;;;;;45.72;21.42;;;5.10;99.90;;;;;;5051480;28;20028;-77
2022/03/15 07:22:06;;;;;;;37.05;21.65;;;5.10;99.90;;;;;;5051252;28;20504;-77
2022/03/15 07:24:32;;;;;;;33.60;20.13;;;5.10;99.90;;;;;;5051466;28;20024;-76
2022/03/15 07:26:58;;;;;;;46.60;23.77;;;5.10;99.90;;;;;;5052556;28;20047;-77
2022/03/15 07:29:24;;;;;;;42.45;23.45;;;5.20;99.90;;;;;;5051493;28;20029;-77
2022/03/15 07:31:49;;;;;;;43.85;24.70;;;5.20;99.90;;;;;;5051858;28;20103;-77
2022/03/15 07:34:15;;;;;;;45.03;24.42;;;5.20;99.90;;;;;;5053599;28;20494;-78
2022/03/15 07:36:40;;;;;;;43.67;23.52;;;5.20;99.90;;;;;;5052753;28;20029;-77
2022/03/15 07:39:06;;;;;;;49.42;25.98;;;5.20;99.90;;;;;;5053821;28;20033;-77
2022/03/15 07:41:34;;;;;;;51.92;24.35;;;5.30;99.90;;;;;;5053841;28;20025;-76
2022/03/15 07:44:00;;;;;;;49.78;25.50;;;5.30;99.90;;;;;;5057857;28;20417;-77
2022/03/15 07:46:26;;;;;;;47.03;25.58;;;5.40;99.90;;;;;;5058335;28;20025;-77
2022/03/15 07:48:51;;;;;;;59.15;27.85;;;5.40;99.90;;;;;;5055593;28;20398;-78
2022/03/15 07:51:17;;;;;;;58.08;27.38;;;5.40;99.90;;;;;;5053553;28;20578;-78
2022/03/15 07:53:43;;;;;;;51.88;27.55;;;5.50;99.90;;;;;;5050597;28;20039;-77
2022/03/15 07:56:10;;;;;;;50.35;28.48;;;5.50;99.90;;;;;;5051360;28;20583;-78
2022/03/15 07:58:36;;;;;;;60.67;29.55;;;5.50;99.90;;;;;;5035251;28;20033;-77
2022/03/15 08:01:02;;;;;;;61.47;28.40;;;5.60;99.90;;;;;;5034769;28;20405;-77
2022/03/15 08:03:27;;;;;;;60.58;30.02;;;5.60;99.90;;;;;;5052345;28;20017;-78
2022/03/15 08:05:56;;;;;;;74.47;31.27;;;5.70;99.90;;;;;;5051013;28;20528;-77
2022/03/15 08:08:21;;;;;;;64.00;31.35;;;5.70;99.90;;;;;;5034175;28;20397;-78
2022/03/15 08:10:47;;;;;;;68.85;32.10;;;5.70;99.90;;;;;;5051896;28;20025;-78
2022/03/15 08:13:13;;;;;;;70.32;33.72;;;5.80;99.90;;;;;;5034504;28;20036;-77
2022/03/15 08:15:38;;;;;;;75.03;32.78;;;5.90;99.90;;;;;;5051676;28;20031;-77
2022/03/15 08:18:05;;;;;;;59.28;30.02;;;5.90;99.90;;;;;;5052265;28;20056;-77
2022/03/15 08:20:33;;;;;;;59.40;30.88;;;5.90;99.90;;;;;;5034767;28;20029;-77
2022/03/15 08:23:02;;;;;;;59.65;28.67;;;6.00;99.90;;;;;;5034134;28;20017;-76
2022/03/15 08:25:27;;;;;;;55.47;27.98;;;6.00;99.90;;;;;;5034168;28;20055;-77
2022/03/15 08:27:53;;;;;;;58.67;28.40;;;6.10;99.90;;;;;;5052039;28;20029;-77
2022/03/15 08:30:20;;;;;;;67.10;28.35;;;6.20;99.90;;;;;;5052363;28;20021;-78
2022/03/15 08:32:46;;;;;;;55.80;29.25;;;6.30;99.90;;;;;;5052960;28;20501;-77
2022/03/15 08:35:12;;;;;;;54.97;27.42;;;6.30;99.90;;;;;;5051835;28;20056;-77
2022/03/15 08:37:38;;;;;;;57.53;30.05;;;6.40;99.90;;;;;;5052108;28;20068;-77
2022/03/15 08:40:04;;;;;;;64.07;29.95;;;6.40;99.90;;;;;;5053489;28;20025;-78
2022/03/15 08:42:30;;;;;;;67.82;31.92;;;6.40;99.90;;;;;;5050885;28;20018;-78
2022/03/15 08:44:56;;;;;;;58.30;30.88;;;6.50;99.90;;;;;;5033256;28;20017;-78
2022/03/15 08:47:21;;;;;;;57.95;30.40;;;6.60;99.90;;;;;;5033334;28;20576;-76
2022/03/15 08:49:47;;;;;;;65.05;31.63;;;6.70;99.90;;;;;;5032809;28;20044;-77
2022/03/15 08:52:13;;;;;;;60.40;28.42;;;6.70;99.90;;;;;;5051669;28;20036;-78
2022/03/15 08:54:38;;;;;;;59.65;30.30;;;6.70;99.90;;;;;;5050918;28;20035;-77
2022/03/15 08:57:04;;;;;;;68.97;29.25;;;6.80;99.90;;;;;;5062058;28;20035;-78
2022/03/15 08:59:31;;;;;;;69.35;31.60;;;6.90;99.90;;;;;;5053077;28;20025;-78
2022/03/15 09:01:57;;;;;;;71.47;32.70;;;6.90;99.90;;;;;;5071126;28;20031;-78
2022/03/15 09:04:23;;;;;;;57.50;27.58;;;7.00;99.90;;;;;;5053330;28;20441;-79
2022/03/15 09:06:49;;;;;;;56.60;29.70;;;7.00;99.90;;;;;;5071306;28;20020;-78
2022/03/15 09:09:21;;;;;;;61.85;29.75;;;7.10;99.90;;;;;;5052818;28;20392;-78
2022/03/15 09:11:47;;;;;;;51.10;25.58;;;7.20;99.90;;;;;;5053714;28;20117;-78
2022/03/15 09:14:14;;;;;;;54.38;27.70;;;7.30;99.90;;;;;;5074799;28;20123;-78
2022/03/15 09:16:39;;;;;;;55.35;24.55;;;7.40;99.90;;;;;;5056617;28;20032;-78
2022/03/15 09:19:06;;;;;;;53.83;27.42;;;7.40;99.90;;;;;;5074477;28;20428;-78
2022/03/15 09:21:32;;;;;;;56.45;28.40;;;7.60;99.90;;;;;;5056690;28;20547;-78
2022/03/15 09:23:57;;;;;;;52.05;27.13;;;7.60;99.90;;;;;;5073902;28;20025;-78
2022/03/15 09:26:24;;;;;;;45.17;27.08;;;7.70;99.90;;;;;;5073672;28;20473;-78
2022/03/15 09:28:50;;;;;;;47.50;25.75;;;7.70;99.90;;;;;;5076583;28;20419;-78
2022/03/15 09:31:16;;;;;;;43.60;24.67;;;7.80;99.90;;;;;;5068739;28;20025;-78
2022/03/15 09:33:43;;;;;;;47.33;24.90;;;7.80;99.90;;;;;;5056991;28;20021;-78
2022/03/15 09:36:09;;;;;;;44.70;24.52;;;8.00;99.90;;;;;;5074359;28;20469;-78
2022/03/15 09:38:35;;;;;;;43.30;24.23;;;8.00;99.90;;;;;;5056013;28;20039;-78
2022/03/15 09:41:04;;;;;;;38.67;23.60;;;8.10;99.90;;;;;;5074262;28;20082;-77
2022/03/15 09:43:37;;;;;;;41.90;24.35;;;8.10;99.90;;;;;;5073949;28;20025;-78
2022/03/15 09:46:05;;;;;;;43.05;23.00;;;8.20;99.90;;;;;;5074076;28;20052;-78
2022/03/15 09:48:34;;;;;;;45.83;24.58;;;8.30;99.90;;;;;;5056463;28;20515;-78
2022/03/15 09:51:04;;;;;;;44.70;23.83;;;8.30;99.90;;;;;;5073679;28;20052;-78
2022/03/15 09:53:34;;;;;;;39.10;24.98;;;8.40;99.90;;;;;;5055807;28;20101;-78
2022/03/15 09:56:00;;;;;;;41.88;23.08;;;8.50;99.90;;;;;;5055457;28;20026;-78
2022/03/15 09:58:26;;;;;;;38.78;23.48;;;8.60;99.90;;;;;;5073783;28;20036;-78
2022/03/15 10:00:54;;;;;;;39.97;22.73;;;8.60;99.90;;;;;;5073841;28;20025;-78
2022/03/15 10:03:21;;;;;;;44.25;24.20;;;8.70;99.90;;;;;;5055654;28;20032;-78
2022/03/15 10:05:49;;;;;;;40.92;22.13;;;8.70;99.90;;;;;;5056120;28;20029;-78
2022/03/15 10:08:16;;;;;;;36.70;21.48;;;8.80;99.90;;;;;;5074342;28;20111;-78
2022/03/15 10:10:42;;;;;;;33.25;19.52;;;8.80;99.90;;;;;;5055998;28;20105;-78
2022/03/15 10:13:09;;;;;;;36.72;20.30;;;8.80;99.90;;;;;;5073673;28;20042;-78
2022/03/15 10:15:35;;;;;;;32.38;18.50;;;8.90;99.90;;;;;;5073505;28;20028;-78
2022/03/15 10:18:06;;;;;;;37.63;20.70;;;8.90;99.90;;;;;;5055581;28;20048;-78
2022/03/15 10:20:41;;;;;;;37.17;22.25;;;8.90;99.90;;;;;;5055424;28;20028;-78
2022/03/15 10:23:10;;;;;;;38.95;21.30;;;9.00;99.90;;;;;;5054843;28;20110;-78
2022/03/15 10:25:37;;;;;;;35.65;21.63;;;9.00;99.90;;;;;;5073022;28;20029;-79
2022/03/15 10:28:07;;;;;;;36.80;20.17;;;9.10;99.90;;;;;;5055686;28;20033;-78
2022/03/15 10:30:34;;;;;;;31.08;19.02;;;9.10;99.90;;;;;;5073041;28;20052;-78
2022/03/15 10:33:00;;;;;;;36.47;21.08;;;9.10;99.90;;;;;;5054888;28;20017;-78
2022/03/15 10:35:32;;;;;;;37.13;21.38;;;9.10;99.90;;;;;;5055925;28;20031;-79
2022/03/15 10:37:59;;;;;;;33.97;20.17;;;9.20;99.90;;;;;;5054996;28;20489;-78
2022/03/15 10:40:35;;;;;;;38.63;20.92;;;9.10;99.90;;;;;;5052942;28;20017;-78
2022/03/15 10:43:06;;;;;;;36.67;20.77;;;9.10;99.90;;;;;;5053232;28;20090;-78
2022/03/15 10:45:34;;;;;;;35.83;21.85;;;9.20;99.90;;;;;;5055251;28;20062;-78
2022/03/15 10:48:00;;;;;;;37.45;21.67;;;9.30;99.90;;;;;;5070995;28;20067;-77
2022/03/15 10:50:26;;;;;;;39.70;22.50;;;9.30;99.90;;;;;;5054308;28;20025;-76
2022/03/15 10:52:53;;;;;;;31.30;19.50;;;9.30;99.90;;;;;;5053655;28;20040;-78
2022/03/15 10:55:30;;;;;;;34.17;19.45;;;9.40;99.90;;;;;;5054355;28;20021;-78
2022/03/15 10:57:57;;;;;;;31.33;18.60;;;9.40;99.90;;;;;;5053351;28;20125;-78
2022/03/15 11:00:28;;;;;;;39.58;19.20;;;9.50;99.90;;;;;;5054191;28;20032;-79
2022/03/15 11:02:55;;;;;;;34.70;18.17;;;9.50;99.90;;;;;;5052884;28;20021;-78
2022/03/15 11:05:41;;;;;;;34.03;20.23;;;9.60;99.90;;;;;;5053723;28;20025;-78
2022/03/15 11:08:13;;;;;;;32.75;18.27;;;9.70;99.90;;;;;;5053366;28;20028;-77
2022/03/15 11:10:41;;;;;;;34.63;19.70;;;9.60;99.90;;;;;;5055368;28;20029;-79
2022/03/15 11:13:11;;;;;;;30.17;18.63;;;9.70;99.90;;;;;;5054792;28;20025;-78
2022/03/15 11:15:49;;;;;;;33.13;19.88;;;9.70;99.90;;;;;;5049675;28;20033;-76
2022/03/15 11:18:17;;;;;;;32.85;18.75;;;9.80;99.90;;;;;;5050976;28;20021;-76
2022/03/15 11:20:48;;;;;;;37.15;21.02;;;9.80;99.90;;;;;;5050015;28;20025;-77
2022/03/15 11:23:16;;;;;;;28.60;18.75;;;9.90;99.90;;;;;;5050559;28;20021;-76
2022/03/15 11:25:45;;;;;;;34.03;19.52;;;10.00;99.90;;;;;;5051264;28;20437;-77
2022/03/15 11:28:14;;;;;;;35.58;19.08;;;10.10;99.90;;;;;;5051275;28;20103;-76
2022/03/15 11:30:41;;;;;;;32.78;19.10;;;10.10;99.90;;;;;;5050853;28;20041;-77
2022/03/15 11:33:09;;;;;;;30.05;18.10;;;10.20;99.90;;;;;;5048859;28;20033;-77
2022/03/15 11:35:36;;;;;;;36.17;18.63;;;10.30;99.90;;;;;;5047978;28;20040;-77
2022/03/15 11:38:05;;;;;;;29.77;17.00;;;10.30;99.90;;;;;;5051078;28;20056;-77
2022/03/15 11:40:31;;;;;;;34.20;18.80;;;10.40;99.90;;;;;;5050585;28;20071;-77
2022/03/15 11:43:28;;;;;;;35.47;17.98;;;10.50;99.90;;;;;;5051530;28;20025;-76
2022/03/15 11:45:59;;;;;;;30.92;18.27;;;10.40;99.90;;;;;;5051423;28;20025;-76
2022/03/15 11:48:49;;;;;;;26.40;17.27;;;10.40;99.90;;;;;;5049381;28;20512;-76
2022/03/15 11:51:26;;;;;;;30.55;17.00;;;10.40;99.90;;;;;;5051337;28;20108;-77
2022/03/15 11:54:24;;;;;;;32.17;18.33;;;10.50;99.90;;;;;;5051477;28;20029;-77
2022/03/15 11:56:58;;;;;;;33.00;17.88;;;10.60;99.90;;;;;;5060007;28;20527;-77
2022/03/15 11:59:24;;;;;;;29.35;17.50;;;10.60;99.90;;;;;;5071749;28;20035;-77
2022/03/15 12:01:55;;;;;;;31.67;18.35;;;10.60;99.90;;;;;;5060301;28;20020;-76
2022/03/15 12:04:25;;;;;;;30.45;16.67;;;10.70;99.90;;;;;;5079104;28;20028;-77
2022/03/15 12:07:00;;;;;;;34.88;18.02;;;10.70;99.90;;;;;;5057387;28;20020;-77
2022/03/15 12:09:30;;;;;;;35.38;18.95;;;10.80;99.90;;;;;;5072245;28;20021;-77
2022/03/15 12:12:08;;;;;;;28.20;16.92;;;10.60;99.90;;;;;;5053994;28;20025;-75
2022/03/15 12:14:39;;;;;;;32.72;18.25;;;10.60;99.90;;;;;;5054386;28;20070;-77
2022/03/15 12:17:06;;;;;;;32.47;17.65;;;10.60;99.90;;;;;;5053655;28;20074;-77
2022/03/15 12:19:47;;;;;;;28.13;17.60;;;10.80;99.90;;;;;;5070285;28;20060;-77
2022/03/15 12:22:26;;;;;;;25.70;16.15;;;10.90;99.90;;;;;;5056517;28;20033;-77
2022/03/15 12:25:11;;;;;;;28.08;16.95;;;11.00;99.90;;;;;;5044906;28;20033;-77
2022/03/15 12:27:46;;;;;;;30.17;18.00;;;11.10;99.90;;;;;;5070111;28;20099;-76
2022/03/15 12:30:18;;;;;;;30.77;16.83;;;11.10;99.90;;;;;;5052402;28;20024;-77
2022/03/15 12:32:51;;;;;;;28.50;16.27;;;11.00;99.90;;;;;;5069715;28;20024;-77
2022/03/15 12:35:17;;;;;;;21.77;14.02;;;11.00;99.90;;;;;;5069858;28;20083;-77
2022/03/15 12:37:42;;;;;;;25.58;15.55;;;11.00;99.90;;;;;;5069920;28;20056;-77